Alpine Haven, Vermont
Current Conditions -  °F | °C
As of 11:55 AM on Thursday 30 Oct 2014 (Local Time) from KEFK Reporting Station
Overcast Overcast  
Wind Chill: 37°   Ceiling: 2700
Heat Index: 41°   Visibility: 10mi
Dew Point: 35°   Wind: 6mph
Humidity: 80%   Direction: 310°NW
Pressure: 29.95"   Gusts: NA
Location:  44.8557°N, 72.6016°W
Report Text: KEFK 301555Z AUTO 31005KT 10SM SCT021 OVC027 05/02 A2995 RMK AO2 T00510019
Loading
Personal Weather Stations






























Interactive Weather Map New forecast layout! Learn more

10-Day Weather Forecast

Advertisements
Track Severe Weather on mobile